sensor_id;sensor_type;location;lat;lon;timestamp;pressure;altitude;pressure_sealevel;temperature;humidity
51031;BME280;37058;41.442;23.240;2023-04-21T13:48:44;99754.72;;;22.04;33.59
51031;BME280;37058;41.442;23.240;2023-04-21T13:51:10;99745.56;;;22.03;33.63
51031;BME280;37058;41.442;23.240;2023-04-21T13:53:36;99753.44;;;22.01;34.00
51031;BME280;37058;41.442;23.240;2023-04-21T13:56:02;99746.81;;;21.94;33.41
51031;BME280;37058;41.442;23.240;2023-04-21T13:58:28;99749.81;;;21.89;34.35
51031;BME280;37058;41.442;23.240;2023-04-21T14:00:56;99749.56;;;21.81;34.70
51031;BME280;37058;41.442;23.240;2023-04-21T14:03:21;99744.47;;;21.71;34.43
51031;BME280;37058;41.442;23.240;2023-04-21T14:05:47;99740.94;;;21.62;34.54
51031;BME280;37058;41.442;23.240;2023-04-21T14:08:13;99742.22;;;21.52;35.13
51031;BME280;37058;41.442;23.240;2023-04-21T14:10:39;99745.22;;;21.47;35.21
51031;BME280;37058;41.442;23.240;2023-04-21T14:13:05;99741.81;;;21.41;35.61
51031;BME280;37058;41.442;23.240;2023-04-21T14:15:31;99738.56;;;21.39;35.39
51031;BME280;37058;41.442;23.240;2023-04-21T14:17:57;99742.97;;;21.40;35.60
51031;BME280;37058;41.442;23.240;2023-04-21T14:20:23;99733.94;;;21.43;35.64
51031;BME280;37058;41.442;23.240;2023-04-21T14:22:49;99735.44;;;21.41;35.37
51031;BME280;37058;41.442;23.240;2023-04-21T14:25:14;99733.63;;;21.45;35.38
51031;BME280;37058;41.442;23.240;2023-04-21T14:27:40;99742.28;;;21.43;35.90
51031;BME280;37058;41.442;23.240;2023-04-21T14:30:07;99735.44;;;21.41;36.28
51031;BME280;37058;41.442;23.240;2023-04-21T14:32:33;99726.50;;;21.35;36.64
51031;BME280;37058;41.442;23.240;2023-04-21T14:34:59;99725.91;;;21.30;36.99
51031;BME280;37058;41.442;23.240;2023-04-21T14:37:28;99729.69;;;21.25;37.51
51031;BME280;37058;41.442;23.240;2023-04-21T14:39:54;99726.66;;;21.18;37.87
51031;BME280;37058;41.442;23.240;2023-04-21T14:42:19;99728.47;;;21.14;37.92
51031;BME280;37058;41.442;23.240;2023-04-21T14:44:45;99723.81;;;21.06;38.79
51031;BME280;37058;41.442;23.240;2023-04-21T14:47:11;99722.06;;;21.01;38.92
51031;BME280;37058;41.442;23.240;2023-04-21T14:49:38;99720.66;;;20.95;38.50
51031;BME280;37058;41.442;23.240;2023-04-21T14:52:03;99722.34;;;20.87;39.16
51031;BME280;37058;41.442;23.240;2023-04-21T14:54:29;99724.63;;;20.85;38.47
51031;BME280;37058;41.442;23.240;2023-04-21T14:56:55;99718.50;;;20.80;38.59
51031;BME280;37058;41.442;23.240;2023-04-21T14:59:22;99724.25;;;20.74;38.27
51031;BME280;37058;41.442;23.240;2023-04-21T15:01:48;99717.03;;;20.73;38.31
51031;BME280;37058;41.442;23.240;2023-04-21T15:37:55;99716.84;;;21.20;37.47
51031;BME280;37058;41.442;23.240;2023-04-21T15:40:21;99722.06;;;21.22;37.70
51031;BME280;37058;41.442;23.240;2023-04-21T15:42:47;99721.22;;;21.21;37.72
51031;BME280;37058;41.442;23.240;2023-04-21T15:45:13;99720.28;;;21.17;37.68
51031;BME280;37058;41.442;23.240;2023-04-21T15:47:42;99719.22;;;21.10;37.92
51031;BME280;37058;41.442;23.240;2023-04-21T15:50:08;99713.88;;;21.05;38.02
51031;BME280;37058;41.442;23.240;2023-04-21T15:52:37;99717.53;;;20.96;38.40
51031;BME280;37058;41.442;23.240;2023-04-21T15:55:09;99720.03;;;20.89;38.93
51031;BME280;37058;41.442;23.240;2023-04-21T15:57:36;99725.31;;;20.82;39.03
51031;BME280;37058;41.442;23.240;2023-04-21T16:00:03;99720.66;;;20.74;39.01
51031;BME280;37058;41.442;23.240;2023-04-21T16:02:31;99723.16;;;20.67;38.59
51031;BME280;37058;41.442;23.240;2023-04-21T16:04:57;99716.84;;;20.58;38.60
51031;BME280;37058;41.442;23.240;2023-04-21T16:07:23;99721.75;;;20.52;39.24
51031;BME280;37058;41.442;23.240;2023-04-21T16:09:49;99725.03;;;20.45;39.32
51031;BME280;37058;41.442;23.240;2023-04-21T16:12:15;99713.34;;;20.40;39.43
51031;BME280;37058;41.442;23.240;2023-04-21T16:14:41;99719.88;;;20.35;39.69
51031;BME280;37058;41.442;23.240;2023-04-21T16:17:07;99721.56;;;20.27;39.61
51031;BME280;37058;41.442;23.240;2023-04-21T16:19:33;99718.50;;;20.20;39.81
51031;BME280;37058;41.442;23.240;2023-04-21T16:21:59;99714.28;;;20.14;39.82
51031;BME280;37058;41.442;23.240;2023-04-21T16:24:25;99715.16;;;20.06;39.88
51031;BME280;37058;41.442;23.240;2023-04-21T16:26:51;99720.53;;;20.02;39.71
51031;BME280;37058;41.442;23.240;2023-04-21T16:29:17;99722.38;;;19.98;39.91
51031;BME280;37058;41.442;23.240;2023-04-21T16:31:44;99717.00;;;19.93;40.02
51031;BME280;37058;41.442;23.240;2023-04-21T16:34:10;99726.31;;;19.88;40.31
51031;BME280;37058;41.442;23.240;2023-04-21T16:36:38;99730.38;;;19.82;42.14
51031;BME280;37058;41.442;23.240;2023-04-21T16:39:04;99730.09;;;19.75;43.36
51031;BME280;37058;41.442;23.240;2023-04-21T16:41:31;99725.06;;;19.68;44.55
51031;BME280;37058;41.442;23.240;2023-04-21T16:43:57;99732.09;;;19.57;45.44
51031;BME280;37058;41.442;23.240;2023-04-21T16:46:22;99737.94;;;19.47;44.72
51031;BME280;37058;41.442;23.240;2023-04-21T16:48:49;99739.59;;;19.39;44.71
51031;BME280;37058;41.442;23.240;2023-04-21T16:51:15;99736.97;;;19.34;43.91
51031;BME280;37058;41.442;23.240;2023-04-21T16:53:41;99743.53;;;19.30;42.05
51031;BME280;37058;41.442;23.240;2023-04-21T16:56:08;99739.78;;;19.25;41.73
51031;BME280;37058;41.442;23.240;2023-04-21T16:58:34;99743.22;;;19.22;43.29
51031;BME280;37058;41.442;23.240;2023-04-21T17:01:01;99738.16;;;19.16;44.27
51031;BME280;37058;41.442;23.240;2023-04-21T17:03:27;99742.06;;;19.06;44.25
51031;BME280;37058;41.442;23.240;2023-04-21T17:05:53;99745.78;;;19.01;43.74
51031;BME280;37058;41.442;23.240;2023-04-21T17:08:19;99750.69;;;18.96;43.02
51031;BME280;37058;41.442;23.240;2023-04-21T17:10:45;99756.06;;;18.92;42.96
51031;BME280;37058;41.442;23.240;2023-04-21T17:13:11;99760.94;;;18.87;43.11
51031;BME280;37058;41.442;23.240;2023-04-21T17:15:37;99766.63;;;18.81;43.07
51031;BME280;37058;41.442;23.240;2023-04-21T17:18:03;99774.44;;;18.79;43.27
51031;BME280;37058;41.442;23.240;2023-04-21T17:20:29;99772.31;;;18.76;42.95
51031;BME280;37058;41.442;23.240;2023-04-21T17:22:55;99777.34;;;18.74;42.59
51031;BME280;37058;41.442;23.240;2023-04-21T17:25:21;99789.84;;;18.72;43.26
51031;BME280;37058;41.442;23.240;2023-04-21T17:27:47;99797.66;;;18.61;47.05
51031;BME280;37058;41.442;23.240;2023-04-21T17:30:13;99797.09;;;18.50;47.06
51031;BME280;37058;41.442;23.240;2023-04-21T17:32:39;99797.41;;;18.40;47.67
51031;BME280;37058;41.442;23.240;2023-04-21T17:35:05;99796.75;;;18.34;47.09
51031;BME280;37058;41.442;23.240;2023-04-21T17:37:32;99799.66;;;18.29;45.80
51031;BME280;37058;41.442;23.240;2023-04-21T17:39:58;99803.34;;;18.25;45.36
51031;BME280;37058;41.442;23.240;2023-04-21T17:42:27;99807.06;;;18.20;44.71
51031;BME280;37058;41.442;23.240;2023-04-21T17:44:53;99807.41;;;18.18;43.58
51031;BME280;37058;41.442;23.240;2023-04-21T17:47:19;99810.16;;;18.18;43.39
51031;BME280;37058;41.442;23.240;2023-04-21T17:49:45;99820.41;;;18.18;43.25
51031;BME280;37058;41.442;23.240;2023-04-21T17:52:11;99814.38;;;18.16;42.71
51031;BME280;37058;41.442;23.240;2023-04-21T17:54:36;99827.41;;;18.15;42.13
51031;BME280;37058;41.442;23.240;2023-04-21T17:57:02;99820.22;;;18.14;45.08
51031;BME280;37058;41.442;23.240;2023-04-21T17:59:29;99835.78;;;18.10;46.01
51031;BME280;37058;41.442;23.240;2023-04-21T18:01:55;99828.94;;;18.08;45.83
51031;BME280;37058;41.442;23.240;2023-04-21T18:04:23;99837.56;;;18.06;44.91
51031;BME280;37058;41.442;23.240;2023-04-21T18:06:50;99831.03;;;18.02;43.70
51031;BME280;37058;41.442;23.240;2023-04-21T18:09:17;99832.34;;;18.05;42.93
51031;BME280;37058;41.442;23.240;2023-04-21T18:11:43;99837.25;;;18.08;42.42
51031;BME280;37058;41.442;23.240;2023-04-21T18:14:10;99833.38;;;18.09;42.58
51031;BME280;37058;41.442;23.240;2023-04-21T18:16:35;99842.47;;;18.09;43.02
51031;BME280;37058;41.442;23.240;2023-04-21T18:19:04;99843.78;;;18.12;43.08
51031;BME280;37058;41.442;23.240;2023-04-21T18:21:34;99841.31;;;18.10;43.41
51031;BME280;37058;41.442;23.240;2023-04-21T18:24:00;99843.91;;;18.07;43.89
51031;BME280;37058;41.442;23.240;2023-04-21T18:26:25;99849.75;;;18.05;42.93
51031;BME280;37058;41.442;23.240;2023-04-21T18:28:54;99852.19;;;18.07;42.15
51031;BME280;37058;41.442;23.240;2023-04-21T18:31:26;99855.78;;;18.07;42.47
51031;BME280;37058;41.442;23.240;2023-04-21T18:33:54;99845.22;;;18.09;42.33
51031;BME280;37058;41.442;23.240;2023-04-21T18:36:21;99854.03;;;18.11;42.06
51031;BME280;37058;41.442;23.240;2023-04-21T18:38:47;99864.25;;;18.11;44.06
51031;BME280;37058;41.442;23.240;2023-04-21T18:41:13;99869.41;;;18.04;44.88
51031;BME280;37058;41.442;23.240;2023-04-21T18:43:39;99876.19;;;17.97;44.14
51031;BME280;37058;41.442;23.240;2023-04-21T18:46:05;99880.72;;;17.93;44.41
51031;BME280;37058;41.442;23.240;2023-04-21T18:48:31;99881.38;;;17.90;44.24
51031;BME280;37058;41.442;23.240;2023-04-21T18:50:57;99878.91;;;17.89;44.33
51031;BME280;37058;41.442;23.240;2023-04-21T18:53:22;99874.81;;;17.86;44.42
51031;BME280;37058;41.442;23.240;2023-04-21T18:55:48;99884.06;;;17.82;45.50
51031;BME280;37058;41.442;23.240;2023-04-21T18:58:14;99887.41;;;17.79;45.90
51031;BME280;37058;41.442;23.240;2023-04-21T19:00:40;99892.44;;;17.76;45.95
51031;BME280;37058;41.442;23.240;2023-04-21T19:03:07;99896.13;;;17.72;45.99
51031;BME280;37058;41.442;23.240;2023-04-21T19:05:35;99891.75;;;17.71;46.43
51031;BME280;37058;41.442;23.240;2023-04-21T19:08:01;99892.38;;;17.68;46.05
51031;BME280;37058;41.442;23.240;2023-04-21T19:10:27;99895.78;;;17.65;46.30
51031;BME280;37058;41.442;23.240;2023-04-21T19:12:53;99900.91;;;17.58;47.30
51031;BME280;37058;41.442;23.240;2023-04-21T19:15:21;99902.13;;;17.51;47.86
51031;BME280;37058;41.442;23.240;2023-04-21T19:17:47;99901.13;;;17.47;47.90
51031;BME280;37058;41.442;23.240;2023-04-21T19:20:12;99900.13;;;17.43;48.18
51031;BME280;37058;41.442;23.240;2023-04-21T19:22:38;99907.88;;;17.41;49.23
51031;BME280;37058;41.442;23.240;2023-04-21T19:25:05;99902.19;;;17.38;48.45
51031;BME280;37058;41.442;23.240;2023-04-21T19:27:32;99906.06;;;17.37;48.95
51031;BME280;37058;41.442;23.240;2023-04-21T19:29:59;99907.59;;;17.29;48.94
51031;BME280;37058;41.442;23.240;2023-04-21T19:32:25;99912.75;;;17.22;48.99
51031;BME280;37058;41.442;23.240;2023-04-21T19:34:51;99914.19;;;17.19;50.29
51031;BME280;37058;41.442;23.240;2023-04-21T19:37:17;99925.31;;;17.14;49.39
51031;BME280;37058;41.442;23.240;2023-04-21T19:39:44;99924.50;;;17.14;48.68
51031;BME280;37058;41.442;23.240;2023-04-21T19:42:10;99920.41;;;17.11;49.58
51031;BME280;37058;41.442;23.240;2023-04-21T19:44:37;99919.09;;;17.08;50.14
51031;BME280;37058;41.442;23.240;2023-04-21T19:47:04;99922.47;;;17.05;52.05
51031;BME280;37058;41.442;23.240;2023-04-21T19:49:30;99922.56;;;17.00;52.69
51031;BME280;37058;41.442;23.240;2023-04-21T19:51:55;99923.31;;;16.92;53.50
51031;BME280;37058;41.442;23.240;2023-04-21T19:54:21;99921.56;;;16.82;53.61
51031;BME280;37058;41.442;23.240;2023-04-21T19:56:47;99925.00;;;16.74;53.47
51031;BME280;37058;41.442;23.240;2023-04-21T19:59:13;99926.00;;;16.64;52.70
51031;BME280;37058;41.442;23.240;2023-04-21T20:01:39;99924.97;;;16.60;52.88
51031;BME280;37058;41.442;23.240;2023-04-21T20:04:05;99926.81;;;16.51;52.72
51031;BME280;37058;41.442;23.240;2023-04-21T20:06:31;99934.16;;;16.42;53.24
51031;BME280;37058;41.442;23.240;2023-04-21T20:08:57;99941.47;;;16.33;54.51
51031;BME280;37058;41.442;23.240;2023-04-21T20:11:22;99941.16;;;16.20;56.18
51031;BME280;37058;41.442;23.240;2023-04-21T20:13:49;99935.94;;;16.00;56.20
51031;BME280;37058;41.442;23.240;2023-04-21T20:16:15;99931.66;;;15.94;56.55
51031;BME280;37058;41.442;23.240;2023-04-21T20:18:42;99941.13;;;15.88;57.24
51031;BME280;37058;41.442;23.240;2023-04-21T20:21:08;99938.31;;;15.74;58.52
51031;BME280;37058;41.442;23.240;2023-04-21T20:23:34;99937.25;;;15.70;58.56
51031;BME280;37058;41.442;23.240;2023-04-21T20:26:00;99943.13;;;15.63;58.97
51031;BME280;37058;41.442;23.240;2023-04-21T20:28:26;99953.69;;;15.56;59.07
51031;BME280;37058;41.442;23.240;2023-04-21T20:30:52;99948.84;;;15.48;59.44
51031;BME280;37058;41.442;23.240;2023-04-21T20:33:18;99954.78;;;15.36;59.41
51031;BME280;37058;41.442;23.240;2023-04-21T20:35:44;99953.44;;;15.33;59.96
51031;BME280;37058;41.442;23.240;2023-04-21T20:38:10;99953.50;;;15.28;60.29
51031;BME280;37058;41.442;23.240;2023-04-21T20:40:36;99971.19;;;15.22;60.56
51031;BME280;37058;41.442;23.240;2023-04-21T20:43:02;99966.63;;;15.12;60.82
51031;BME280;37058;41.442;23.240;2023-04-21T20:45:30;99969.44;;;15.07;61.10
51031;BME280;37058;41.442;23.240;2023-04-21T20:47:56;99966.50;;;14.99;61.43
51031;BME280;37058;41.442;23.240;2023-04-21T20:50:22;99967.09;;;14.95;61.68
51031;BME280;37058;41.442;23.240;2023-04-21T20:52:48;99964.41;;;14.90;62.26
51031;BME280;37058;41.442;23.240;2023-04-21T20:55:15;99969.69;;;14.87;62.11
51031;BME280;37058;41.442;23.240;2023-04-21T20:57:41;99969.97;;;14.85;62.00
51031;BME280;37058;41.442;23.240;2023-04-21T21:00:08;99974.44;;;14.81;61.62
51031;BME280;37058;41.442;23.240;2023-04-21T21:02:36;99983.22;;;14.78;61.95
51031;BME280;37058;41.442;23.240;2023-04-21T21:05:02;99983.28;;;14.73;62.03
51031;BME280;37058;41.442;23.240;2023-04-21T21:07:29;99983.59;;;14.71;62.22
51031;BME280;37058;41.442;23.240;2023-04-21T21:09:56;99981.72;;;14.67;62.65
51031;BME280;37058;41.442;23.240;2023-04-21T21:12:21;99982.91;;;14.56;63.50
51031;BME280;37058;41.442;23.240;2023-04-21T21:14:47;99988.16;;;14.52;63.93
51031;BME280;37058;41.442;23.240;2023-04-21T21:17:13;99988.41;;;14.50;64.55
51031;BME280;37058;41.442;23.240;2023-04-21T21:19:44;99994.44;;;14.52;64.78
51031;BME280;37058;41.442;23.240;2023-04-21T21:22:10;99992.28;;;14.49;65.13
51031;BME280;37058;41.442;23.240;2023-04-21T21:24:36;100000.34;;;14.41;65.65
51031;BME280;37058;41.442;23.240;2023-04-21T21:27:02;100012.78;;;14.28;66.43
51031;BME280;37058;41.442;23.240;2023-04-21T21:29:31;100012.56;;;14.24;66.64
51031;BME280;37058;41.442;23.240;2023-04-21T21:31:56;100021.06;;;14.23;66.84
51031;BME280;37058;41.442;23.240;2023-04-21T21:34:22;100024.41;;;14.20;67.17
51031;BME280;37058;41.442;23.240;2023-04-21T21:36:48;100023.34;;;14.16;67.49
51031;BME280;37058;41.442;23.240;2023-04-21T21:39:14;100025.56;;;14.14;67.27
51031;BME280;37058;41.442;23.240;2023-04-21T21:41:40;100031.09;;;14.08;67.29
51031;BME280;37058;41.442;23.240;2023-04-21T21:44:06;100034.91;;;14.07;67.63
51031;BME280;37058;41.442;23.240;2023-04-21T21:46:32;100031.13;;;14.03;68.22
51031;BME280;37058;41.442;23.240;2023-04-21T21:48:58;100030.56;;;14.01;68.19
51031;BME280;37058;41.442;23.240;2023-04-21T21:51:24;100034.44;;;14.00;68.02
51031;BME280;37058;41.442;23.240;2023-04-21T21:53:51;100032.19;;;14.02;67.80
51031;BME280;37058;41.442;23.240;2023-04-21T21:56:17;100035.50;;;14.04;67.54
51031;BME280;37058;41.442;23.240;2023-04-21T21:58:43;100040.16;;;14.04;67.68
51031;BME280;37058;41.442;23.240;2023-04-21T22:01:09;100045.41;;;14.00;67.90
51031;BME280;37058;41.442;23.240;2023-04-21T22:03:36;100045.47;;;13.95;68.62
51031;BME280;37058;41.442;23.240;2023-04-21T22:06:02;100043.25;;;13.92;68.41
51031;BME280;37058;41.442;23.240;2023-04-21T22:08:28;100045.00;;;13.78;68.52
51031;BME280;37058;41.442;23.240;2023-04-21T22:10:54;100043.41;;;13.61;69.25
51031;BME280;37058;41.442;23.240;2023-04-21T22:13:21;100046.19;;;13.56;69.21
51031;BME280;37058;41.442;23.240;2023-04-21T22:15:47;100055.56;;;13.50;69.47
51031;BME280;37058;41.442;23.240;2023-04-21T22:18:13;100051.72;;;13.46;70.05
51031;BME280;37058;41.442;23.240;2023-04-21T22:20:39;100046.56;;;13.29;70.87
51031;BME280;37058;41.442;23.240;2023-04-21T22:23:05;100053.69;;;13.25;71.06
51031;BME280;37058;41.442;23.240;2023-04-21T22:25:31;100058.63;;;13.23;71.39
51031;BME280;37058;41.442;23.240;2023-04-21T22:27:57;100052.91;;;13.19;71.82
51031;BME280;37058;41.442;23.240;2023-04-21T22:30:23;100065.75;;;13.19;71.52
51031;BME280;37058;41.442;23.240;2023-04-21T22:32:50;100063.88;;;13.19;71.67
51031;BME280;37058;41.442;23.240;2023-04-21T22:35:16;100061.66;;;13.21;71.52
51031;BME280;37058;41.442;23.240;2023-04-21T22:37:42;100068.78;;;13.22;71.73
51031;BME280;37058;41.442;23.240;2023-04-21T22:40:09;100060.84;;;13.21;71.82
51031;BME280;37058;41.442;23.240;2023-04-21T22:42:35;100067.13;;;13.21;72.13
51031;BME280;37058;41.442;23.240;2023-04-21T22:45:01;100065.75;;;13.24;72.06
51031;BME280;37058;41.442;23.240;2023-04-21T22:47:30;100074.28;;;13.22;72.32
51031;BME280;37058;41.442;23.240;2023-04-21T22:49:56;100058.38;;;13.19;72.28
51031;BME280;37058;41.442;23.240;2023-04-21T22:52:22;100060.84;;;13.11;72.42
51031;BME280;37058;41.442;23.240;2023-04-21T22:54:51;100057.59;;;13.04;72.62
51031;BME280;37058;41.442;23.240;2023-04-21T22:57:17;100070.22;;;12.94;72.81
51031;BME280;37058;41.442;23.240;2023-04-21T22:59:43;100071.63;;;12.87;72.98
51031;BME280;37058;41.442;23.240;2023-04-21T23:02:10;100071.63;;;12.66;74.37
51031;BME280;37058;41.442;23.240;2023-04-21T23:04:36;100069.97;;;12.55;74.74
51031;BME280;37058;41.442;23.240;2023-04-21T23:07:01;100071.91;;;12.54;74.61
51031;BME280;37058;41.442;23.240;2023-04-21T23:09:28;100073.81;;;12.49;75.10
51031;BME280;37058;41.442;23.240;2023-04-21T23:11:53;100071.63;;;12.46;75.09
51031;BME280;37058;41.442;23.240;2023-04-21T23:14:19;100072.16;;;12.43;74.99
51031;BME280;37058;41.442;23.240;2023-04-21T23:16:45;100062.56;;;12.40;74.71
51031;BME280;37058;41.442;23.240;2023-04-21T23:19:11;100071.91;;;12.39;74.96
51031;BME280;37058;41.442;23.240;2023-04-21T23:21:37;100064.50;;;12.40;74.67
51031;BME280;37058;41.442;23.240;2023-04-21T23:24:03;100070.53;;;12.42;74.78
51031;BME280;37058;41.442;23.240;2023-04-21T23:26:29;100063.94;;;12.32;75.11
51031;BME280;37058;41.442;23.240;2023-04-21T23:28:55;100065.03;;;12.21;75.60
51031;BME280;37058;41.442;23.240;2023-04-21T23:31:21;100065.28;;;12.14;75.91
51031;BME280;37058;41.442;23.240;2023-04-21T23:33:47;100062.28;;;12.11;76.22
51031;BME280;37058;41.442;23.240;2023-04-21T23:36:13;100072.41;;;12.05;76.62
51031;BME280;37058;41.442;23.240;2023-04-21T23:38:39;100066.63;;;11.97;76.62
51031;BME280;37058;41.442;23.240;2023-04-21T23:41:05;100075.38;;;11.93;76.82
51031;BME280;37058;41.442;23.240;2023-04-21T23:43:31;100072.34;;;11.90;77.00
51031;BME280;37058;41.442;23.240;2023-04-21T23:45:59;100074.28;;;11.89;76.73
51031;BME280;37058;41.442;23.240;2023-04-21T23:48:25;100077.56;;;11.86;76.23
51031;BME280;37058;41.442;23.240;2023-04-21T23:50:51;100089.00;;;11.83;76.32
51031;BME280;37058;41.442;23.240;2023-04-21T23:53:17;100091.44;;;11.80;76.42
51031;BME280;37058;41.442;23.240;2023-04-21T23:55:43;100096.09;;;11.79;76.50
51031;BME280;37058;41.442;23.240;2023-04-21T23:58:10;100099.94;;;11.78;76.78
